地図

経路データ

SID SEASON NUMBER BASIN SUBBASIN NAME ISO_TIME NATURE LAT LON WMO_WIND WMO_PRES WMO_AGENCY TRACK_TYPE DIST2LAND LANDFALL IFLAG USA_AGENCY USA_ATCF_ID USA_LAT USA_LON USA_RECORD USA_STATUS USA_WIND USA_PRES USA_SSHS USA_R34_NE USA_R34_SE USA_R34_SW USA_R34_NW USA_R50_NE USA_R50_SE USA_R50_SW USA_R50_NW USA_R64_NE USA_R64_SE USA_R64_SW USA_R64_NW USA_POCI USA_ROCI USA_RMW USA_EYE TOKYO_LAT TOKYO_LON TOKYO_GRADE TOKYO_WIND TOKYO_PRES TOKYO_R50_DIR TOKYO_R50_LONG TOKYO_R50_SHORT TOKYO_R30_DIR TOKYO_R30_LONG TOKYO_R30_SHORT TOKYO_LAND CMA_LAT CMA_LON CMA_CAT CMA_WIND CMA_PRES HKO_LAT HKO_LON HKO_CAT HKO_WIND HKO_PRES NEWDELHI_LAT NEWDELHI_LON NEWDELHI_GRADE NEWDELHI_WIND NEWDELHI_PRES NEWDELHI_CI NEWDELHI_DP NEWDELHI_POCI REUNION_LAT REUNION_LON REUNION_TYPE REUNION_WIND REUNION_PRES REUNION_TNUM REUNION_CI REUNION_RMW REUNION_R34_NE REUNION_R34_SE REUNION_R34_SW REUNION_R34_NW REUNION_R50_NE REUNION_R50_SE REUNION_R50_SW REUNION_R50_NW REUNION_R64_NE REUNION_R64_SE REUNION_R64_SW REUNION_R64_NW BOM_LAT BOM_LON BOM_TYPE BOM_WIND BOM_PRES BOM_TNUM BOM_CI BOM_RMW BOM_R34_NE BOM_R34_SE BOM_R34_SW BOM_R34_NW BOM_R50_NE BOM_R50_SE BOM_R50_SW BOM_R50_NW BOM_R64_NE BOM_R64_SE BOM_R64_SW BOM_R64_NW BOM_ROCI BOM_POCI BOM_EYE BOM_POS_METHOD BOM_PRES_METHOD NADI_LAT NADI_LON NADI_CAT NADI_WIND NADI_PRES WELLINGTON_LAT WELLINGTON_LON WELLINGTON_WIND WELLINGTON_PRES DS824_LAT DS824_LON DS824_STAGE DS824_WIND DS824_PRES TD9636_LAT TD9636_LON TD9636_STAGE TD9636_WIND TD9636_PRES TD9635_LAT TD9635_LON TD9635_WIND TD9635_PRES TD9635_ROCI NEUMANN_LAT NEUMANN_LON NEUMANN_CLASS NEUMANN_WIND NEUMANN_PRES MLC_LAT MLC_LON MLC_CLASS MLC_WIND MLC_PRES USA_GUST BOM_GUST BOM_GUST_PER REUNION_GUST REUNION_GUST_PER USA_SEAHGT USA_SEARAD_NE USA_SEARAD_SE USA_SEARAD_SW USA_SEARAD_NW STORM_SPEED STORM_DIR
1904346S08065 1905 47 SI MM NOT_NAMED 1904-12-11 06:00:00 NR -7.50000 64.6000 reunion main 1594 1584 _____O________ -1 -7.50000 64.6000 99 9.90000 4 271
1904346S08065 1905 47 SI MM NOT_NAMED 1904-12-11 09:00:00 NR -7.49767 64.3892 main 1584 1574 _____P________ -1 -7.49767 64.3892 99 4 270
1904346S08065 1905 47 SI MM NOT_NAMED 1904-12-11 12:00:00 NR -7.49671 64.1746 main 1574 1565 _____P________ -1 -7.49671 64.1746 99 4 270
1904346S08065 1905 47 SI MM NOT_NAMED 1904-12-11 15:00:00 NR -7.49854 63.9526 main 1565 1551 _____P________ -1 -7.49854 63.9526 99 5 269
1904346S08065 1905 47 SI MM NOT_NAMED 1904-12-11 18:00:00 NR -7.50463 63.7195 main 1551 1542 _____P________ -1 -7.50463 63.7195 99 5 268
1904346S08065 1905 47 SI MM NOT_NAMED 1904-12-11 21:00:00 NR -7.51640 63.4714 main 1542 1530 _____P________ -1 -7.51640 63.4714 99 5 267
1904346S08065 1905 47 SI MM NOT_NAMED 1904-12-12 00:00:00 NR -7.53528 63.2046 main 1530 1507 _____P________ -1 -7.53528 63.2046 99 6 265
1904346S08065 1905 47 SI MM NOT_NAMED 1904-12-12 03:00:00 NR -7.56268 62.9154 main 1507 1495 _____P________ -1 -7.56268 62.9154 99 6 264
1904346S08065 1905 47 SI MM NOT_NAMED 1904-12-12 06:00:00 NR -7.60000 62.6000 reunion main 1495 1484 _____O________ -1 -7.60000 62.6000 99 9.90000 7 263
1904346S08065 1905 47 SI MM NOT_NAMED 1904-12-12 09:00:00 NR -7.64800 62.2564 main 1484 1441 _____P________ -1 -7.64800 62.2564 99 7 262
1904346S08065 1905 47 SI MM NOT_NAMED 1904-12-12 12:00:00 NR -7.70489 61.8897 main 1441 1396 _____P________ -1 -7.70489 61.8897 99 8 261
1904346S08065 1905 47 SI MM NOT_NAMED 1904-12-12 15:00:00 NR -7.76827 61.5070 main 1396 1356 _____P________ -1 -7.76827 61.5070 99 8 260
1904346S08065 1905 47 SI MM NOT_NAMED 1904-12-12 18:00:00 NR -7.83576 61.1154 main 1356 1312 _____P________ -1 -7.83576 61.1154 99 8 260
1904346S08065 1905 47 SI MM NOT_NAMED 1904-12-12 21:00:00 NR -7.90500 60.7218 main 1312 1277 _____P________ -1 -7.90500 60.7218 99 8 260
1904346S08065 1905 47 SI MM NOT_NAMED 1904-12-13 00:00:00 NR -7.97365 60.3334 main 1267 1238 _____P________ -1 -7.97365 60.3334 99 8 260
1904346S08065 1905 47 SI MM NOT_NAMED 1904-12-13 03:00:00 NR -8.03941 59.9571 main 1238 1194 _____P________ -1 -8.03941 59.9571 99 7 260
1904346S08065 1905 47 SI MM NOT_NAMED 1904-12-13 06:00:00 NR -8.10000 59.6000 reunion main 1194 1165 _____O________ -1 -8.10000 59.6000 99 9.90000 7 261
1904346S08065 1905 47 SI MM NOT_NAMED 1904-12-13 09:00:00 NR -8.14250 59.2953 main 1165 1130 _____P________ -1 -8.14250 59.2953 99 6 262
1904346S08065 1905 47 SI MM NOT_NAMED 1904-12-13 12:00:00 NR -8.18042 59.0085 main 1130 1102 _____P________ -1 -8.18042 59.0085 99 6 263
1904346S08065 1905 47 SI MM NOT_NAMED 1904-12-13 15:00:00 NR -8.21536 58.7348 main 1102 1083 _____P________ -1 -8.21536 58.7348 99 5 263
1904346S08065 1905 47 SI MM NOT_NAMED 1904-12-13 18:00:00 NR -8.24889 58.4696 main 1083 1049 _____P________ -1 -8.24889 58.4696 99 5 263
1904346S08065 1905 47 SI MM NOT_NAMED 1904-12-13 21:00:00 NR -8.28258 58.2082 main 1049 1030 _____P________ -1 -8.28258 58.2082 99 5 262
1904346S08065 1905 47 SI MM NOT_NAMED 1904-12-14 00:00:00 NR -8.31797 57.9460 main 1020 996 _____P________ -1 -8.31797 57.9460 99 5 262
1904346S08065 1905 47 SI MM NOT_NAMED 1904-12-14 03:00:00 NR -8.35660 57.6781 main 996 968 _____P________ -1 -8.35660 57.6781 99 5 261
1904346S08065 1905 47 SI MM NOT_NAMED 1904-12-14 06:00:00 NR -8.40000 57.4000 reunion main 968 940 _____O________ -1 -8.40000 57.4000 99 9.90000 6 261
1904346S08065 1905 47 SI MM NOT_NAMED 1904-12-14 09:00:00 NR -8.44736 57.0973 main 940 907 _____P________ -1 -8.44736 57.0973 99 6 261
1904346S08065 1905 47 SI MM NOT_NAMED 1904-12-14 12:00:00 NR -8.49824 56.7867 main 907 879 _____P________ -1 -8.49824 56.7867 99 6 260
1904346S08065 1905 47 SI MM NOT_NAMED 1904-12-14 15:00:00 NR -8.55306 56.4688 main 873 846 _____P________ -1 -8.55306 56.4688 99 6 260
1904346S08065 1905 47 SI MM NOT_NAMED 1904-12-14 18:00:00 NR -8.61220 56.1446 main 836 802 _____P________ -1 -8.61220 56.1446 99 7 259
1904346S08065 1905 47 SI MM NOT_NAMED 1904-12-14 21:00:00 NR -8.67606 55.8148 main 802 774 _____P________ -1 -8.67606 55.8148 99 7 259
1904346S08065 1905 47 SI MM NOT_NAMED 1904-12-15 00:00:00 NR -8.74504 55.4803 main 774 740 _____P________ -1 -8.74504 55.4803 99 7 258
1904346S08065 1905 47 SI MM NOT_NAMED 1904-12-15 03:00:00 NR -8.81955 55.1417 main 730 696 _____P________ -1 -8.81955 55.1417 99 7 257
1904346S08065 1905 47 SI MM NOT_NAMED 1904-12-15 06:00:00 NR -8.90000 54.8000 reunion main 696 662 _____O________ -1 -8.90000 54.8000 99 9.90000 7 256
1904346S08065 1905 47 SI MM NOT_NAMED 1904-12-15 09:00:00 NR -8.98593 54.4574 main 662 620 _____P________ -1 -8.98593 54.4574 99 7 255
1904346S08065 1905 47 SI MM NOT_NAMED 1904-12-15 12:00:00 NR -9.07823 54.1103 main 620 586 _____P________ -1 -9.07823 54.1103 99 7 255
1904346S08065 1905 47 SI MM NOT_NAMED 1904-12-15 15:00:00 NR -9.17572 53.7600 main 586 544 _____P________ -1 -9.17572 53.7600 99 7 254
1904346S08065 1905 47 SI MM NOT_NAMED 1904-12-15 18:00:00 NR -9.27722 53.4075 main 544 511 _____P________ -1 -9.27722 53.4075 99 7 254
1904346S08065 1905 47 SI MM NOT_NAMED 1904-12-15 21:00:00 NR -9.38156 53.0540 main 511 470 _____P________ -1 -9.38156 53.0540 99 7 253
1904346S08065 1905 47 SI MM NOT_NAMED 1904-12-16 00:00:00 NR -9.48758 52.7008 main 470 438 _____P________ -1 -9.48758 52.7008 99 7 253
1904346S08065 1905 47 SI MM NOT_NAMED 1904-12-16 03:00:00 NR -9.59411 52.3491 main 430 398 _____P________ -1 -9.59411 52.3491 99 7 253
1904346S08065 1905 47 SI MM NOT_NAMED 1904-12-16 06:00:00 NR -9.70000 52.0000 reunion main 398 367 _____O________ -1 -9.70000 52.0000 99 9.90000 7 254
1904346S08065 1905 47 SI MM NOT_NAMED 1904-12-16 09:00:00 NR -9.78776 51.6859 main 367 336 _____P________ -1 -9.78776 51.6859 99 6 254
1904346S08065 1905 47 SI MM NOT_NAMED 1904-12-16 12:00:00 NR -9.87418 51.3774 main 336 306 _____P________ -1 -9.87418 51.3774 99 6 254
1904346S08065 1905 47 SI MM NOT_NAMED 1904-12-16 15:00:00 NR -9.96170 51.0685 main 306 286 _____P________ -1 -9.96170 51.0685 99 6 254
1904346S08065 1905 47 SI MM NOT_NAMED 1904-12-16 18:00:00 NR -10.0528 50.7529 main 277 254 _____P________ -1 -10.0528 50.7529 99 7 253
1904346S08065 1905 47 SI MM NOT_NAMED 1904-12-16 21:00:00 NR -10.1497 50.4245 main 254 230 _____P________ -1 -10.1497 50.4245 99 7 253
1904346S08065 1905 47 SI MM NOT_NAMED 1904-12-17 00:00:00 NR -10.2550 50.0771 main 219 195 _____P________ -1 -10.2550 50.0771 99 7 253
1904346S08065 1905 47 SI MM NOT_NAMED 1904-12-17 03:00:00 NR -10.3710 49.7043 main 195 179 _____P________ -1 -10.3710 49.7043 99 8 252
1904346S08065 1905 47 SI MM NOT_NAMED 1904-12-17 06:00:00 NR -10.5000 49.3000 reunion main 179 168 _____O________ -1 -10.5000 49.3000 99 9.90000 9 252
1904346S08065 1905 47 SI MM NOT_NAMED 1904-12-17 09:00:00 NR -10.6434 48.8522 main 171 162 _____P________ -1 -10.6434 48.8522 99 10 252
1904346S08065 1905 47 SI MM NOT_NAMED 1904-12-17 12:00:00 NR -10.7989 48.3736 main 169 169 _____P________ -1 -10.7989 48.3736 99 10 252
1904346S08065 1905 47 SI MM NOT_NAMED 1904-12-17 15:00:00 NR -10.9649 47.8685 main 187 187 _____P________ -1 -10.9649 47.8685 99 11 251
1904346S08065 1905 47 SI MM NOT_NAMED 1904-12-17 18:00:00 NR -11.1400 47.3415 main 226 218 _____P________ -1 -11.1400 47.3415 99 11 251
1904346S08065 1905 47 SI MM NOT_NAMED 1904-12-17 21:00:00 NR -11.3225 46.7967 main 255 255 _____P________ -1 -11.3225 46.7967 99 11 251
1904346S08065 1905 47 SI MM NOT_NAMED 1904-12-18 00:00:00 NR -11.5110 46.2386 main 304 304 _____P________ -1 -11.5110 46.2386 99 12 251
1904346S08065 1905 47 SI MM NOT_NAMED 1904-12-18 03:00:00 NR -11.7040 45.6716 main 327 327 _____P________ -1 -11.7040 45.6716 99 12 251
1904346S08065 1905 47 SI MM NOT_NAMED 1904-12-18 06:00:00 NR -11.9000 45.1000 reunion main 364 364 _____O________ -1 -11.9000 45.1000 99 9.90000 12 252
1904346S08065 1905 47 SI MM NOT_NAMED 1904-12-18 09:00:00 NR -12.0765 44.4773 main 409 359 _____P________ -1 -12.0765 44.4773 99 13 254
1904346S08065 1905 47 SI MM NOT_NAMED 1904-12-18 12:00:00 NR -12.2555 43.8378 main 349 283 _____P________ -1 -12.2555 43.8378 99 13 254
1904346S08065 1905 47 SI MM NOT_NAMED 1904-12-18 15:00:00 NR -12.4389 43.1968 main 283 217 _____P________ -1 -12.4389 43.1968 99 13 253
1904346S08065 1905 47 SI MM NOT_NAMED 1904-12-18 18:00:00 NR -12.6288 42.5693 main 217 151 _____P________ -1 -12.6288 42.5693 99 13 252
1904346S08065 1905 47 SI MM NOT_NAMED 1904-12-18 21:00:00 NR -12.8274 41.9706 main 151 89 _____P________ -1 -12.8274 41.9706 99 12 250
1904346S08065 1905 47 SI MM NOT_NAMED 1904-12-19 00:00:00 NR -13.0371 41.4159 main 89 39 _____P________ -1 -13.0371 41.4159 99 11 247
1904346S08065 1905 47 SI MM NOT_NAMED 1904-12-19 03:00:00 NR -13.2605 40.9206 main 34 0 _____P________ -1 -13.2605 40.9206 99 10 243
1904346S08065 1905 47 SI MM NOT_NAMED 1904-12-19 06:00:00 NR -13.5000 40.5000 reunion main 0 0 _____O________ -1 -13.5000 40.5000 99 9.90000 9 236
1904346S08065 1905 47 SI MM NOT_NAMED 1904-12-19 09:00:00 NR -13.7575 40.1650 main 0 0 _____P________ -1 -13.7575 40.1650 99 8 227
1904346S08065 1905 47 SI MM NOT_NAMED 1904-12-19 12:00:00 NR -14.0318 39.9089 main 0 0 _____P________ -1 -14.0318 39.9089 99 7 218
1904346S08065 1905 47 SI MM NOT_NAMED 1904-12-19 15:00:00 NR -14.3206 39.7204 main 0 0 _____P________ -1 -14.3206 39.7204 99 7 208
1904346S08065 1905 47 SI MM NOT_NAMED 1904-12-19 18:00:00 NR -14.6216 39.5884 main 0 0 _____P________ -1 -14.6216 39.5884 99 7 199
1904346S08065 1905 47 SI MM NOT_NAMED 1904-12-19 21:00:00 NR -14.9325 39.5016 main 0 0 _____P________ -1 -14.9325 39.5016 99 6 192
1904346S08065 1905 47 SI MM NOT_NAMED 1904-12-20 00:00:00 NR -15.2508 39.4488 main 0 0 _____P________ -1 -15.2508 39.4488 99 7 187
1904346S08065 1905 47 SI MM NOT_NAMED 1904-12-20 03:00:00 NR -15.5742 39.4187 main 0 0 _____P________ -1 -15.5742 39.4187 99 7 183
1904346S08065 1905 47 SI MM NOT_NAMED 1904-12-20 06:00:00 NR -15.9000 39.4000 reunion main 0 _____O________ -1 -15.9000 39.4000 99 9.90000 7 183

IBTrACS Databaseについて

本データベースは、米国NOAAが公開する1842年以降の世界の熱帯低気圧のベストトラックデータアーカイブInternational Best Track Archive for Climate Stewardship (IBTrACS)を、ウェブで閲覧しやすい形式に変換したものです。

最終更新日:2021-11-26